createdAt,value
2019-06-10T00:03:14.302Z,15.30
2019-06-10T00:08:21.375Z,15.30
2019-06-10T00:13:28.540Z,15.30
2019-06-10T00:18:42.035Z,15.30
2019-06-10T00:23:44.284Z,15.30
2019-06-10T00:28:51.511Z,15.30
2019-06-10T00:34:01.375Z,15.20
2019-06-10T00:39:08.851Z,15.20
2019-06-10T00:44:17.201Z,15.10
2019-06-10T00:49:24.250Z,15.10
2019-06-10T00:54:31.396Z,15.20
2019-06-10T00:59:38.448Z,15.20
2019-06-10T01:04:46.882Z,15.20
2019-06-10T01:09:54.067Z,15.20
2019-06-10T01:15:01.268Z,15.30
2019-06-10T01:20:10.668Z,15.30
2019-06-10T01:25:18.474Z,15.40
2019-06-10T01:30:27.334Z,15.40
2019-06-10T01:35:34.583Z,15.40
2019-06-10T01:40:42.895Z,15.50
2019-06-10T01:45:51.143Z,15.50
2019-06-10T01:51:01.832Z,15.60
2019-06-10T01:56:10.366Z,15.70
2019-06-10T02:01:33.146Z,15.70
2019-06-10T02:06:40.658Z,15.80
2019-06-10T02:11:47.849Z,15.70
2019-06-10T02:16:55.491Z,15.70
2019-06-10T02:22:02.762Z,15.70
2019-06-10T02:27:12.882Z,15.70
2019-06-10T02:32:30.761Z,15.70
2019-06-10T02:37:32.554Z,15.70
2019-06-10T02:42:43.358Z,15.70
2019-06-10T02:47:48.868Z,15.70
2019-06-10T02:52:55.936Z,15.70
2019-06-10T02:58:03.912Z,15.80
2019-06-10T03:03:14.157Z,15.80
2019-06-10T03:08:22.149Z,16.00
2019-06-10T03:13:29.724Z,16.20
2019-06-10T03:18:36.806Z,16.30
2019-06-10T03:23:44.003Z,16.40
2019-06-10T03:28:52.026Z,16.50
2019-06-10T03:33:59.265Z,16.50
2019-06-10T03:39:08.682Z,16.60
2019-06-10T03:44:16.823Z,16.60
2019-06-10T03:49:26.749Z,16.70
2019-06-10T03:54:33.173Z,16.90
2019-06-10T03:59:42.170Z,16.90
2019-06-10T04:04:49.402Z,17.00
2019-06-10T04:09:56.705Z,17.10
2019-06-10T04:15:03.903Z,17.30
2019-06-10T04:20:13.224Z,17.40
2019-06-10T04:25:23.192Z,17.50
2019-06-10T04:30:32.318Z,17.60
2019-06-10T04:35:38.757Z,17.70
2019-06-10T04:40:45.957Z,17.90
2019-06-10T04:45:53.203Z,18.10
2019-06-10T04:56:18.127Z,18.40
2019-06-10T05:01:27.064Z,18.50
2019-06-10T05:06:34.219Z,18.60
2019-06-10T05:11:43.199Z,18.80
2019-06-10T05:16:50.001Z,18.90
2019-06-10T05:21:57.081Z,19.10
2019-06-10T05:27:04.291Z,19.40
2019-06-10T05:32:13.148Z,19.60
2019-06-10T05:37:23.304Z,19.80
2019-06-10T05:42:33.534Z,19.90
2019-06-10T05:47:39.873Z,19.90
2019-06-10T05:52:47.012Z,19.90
2019-06-10T05:57:54.164Z,19.90
2019-06-10T06:03:02.777Z,19.90
2019-06-10T06:08:12.397Z,19.90
2019-06-10T06:13:18.727Z,20.00
2019-06-10T06:18:25.909Z,20.00
2019-06-10T06:23:33.873Z,20.00
2019-06-10T06:28:43.050Z,20.00
2019-06-10T06:33:52.702Z,20.00
2019-06-10T06:38:59.515Z,20.00
2019-06-10T06:44:06.830Z,19.90
2019-06-10T06:49:15.233Z,19.80
2019-06-10T06:54:23.020Z,19.80
2019-06-10T06:59:33.797Z,19.70
2019-06-10T07:04:40.486Z,19.80
2019-06-10T07:09:52.624Z,19.80
2019-06-10T07:15:01.347Z,19.70
2019-06-10T07:20:12.630Z,19.60
2019-06-10T07:25:19.832Z,19.60
2019-06-10T07:30:41.554Z,19.80
2019-06-10T07:35:47.135Z,20.10
2019-06-10T07:40:54.331Z,20.70
2019-06-10T07:46:03.392Z,21.10
2019-06-10T07:51:13.097Z,21.40
2019-06-10T07:56:19.796Z,21.50
2019-06-10T08:01:26.984Z,21.20
2019-06-10T08:06:35.152Z,20.90
2019-06-10T08:11:46.524Z,21.30
2019-06-10T08:16:53.135Z,21.70
2019-06-10T08:22:02.704Z,21.80
2019-06-10T08:27:09.082Z,21.50
2019-06-10T08:32:16.218Z,20.90
2019-06-10T08:37:23.676Z,20.80
2019-06-10T08:42:32.392Z,21.00
2019-06-10T08:47:39.631Z,21.60
2019-06-10T08:53:03.360Z,22.20
2019-06-10T08:57:55.563Z,22.40
2019-06-10T09:03:04.190Z,22.70
2019-06-10T09:08:13.008Z,23.00
2019-06-10T09:13:22.257Z,22.60
2019-06-10T09:18:28.886Z,22.10
2019-06-10T09:23:35.920Z,22.10
2019-06-10T09:28:47.165Z,22.40
2019-06-10T09:33:56.250Z,22.80
2019-06-10T09:39:03.746Z,23.60
2019-06-10T09:44:12.655Z,24.40
2019-06-10T09:49:22.264Z,24.50
2019-06-10T09:54:30.021Z,24.70
2019-06-10T09:59:37.249Z,24.50
2019-06-10T10:04:58.078Z,24.40
2019-06-10T10:10:05.157Z,24.10
2019-06-10T10:15:26.728Z,24.10
2019-06-10T10:20:22.893Z,24.70
2019-06-10T10:25:33.279Z,25.30
2019-06-10T10:30:44.684Z,25.70
2019-06-10T10:35:50.689Z,26.00
2019-06-10T10:40:59.158Z,26.00
2019-06-10T10:46:06.751Z,26.10
2019-06-10T10:51:13.945Z,26.30
2019-06-10T10:56:22.315Z,26.30
2019-06-10T11:01:29.662Z,26.50
2019-06-10T11:06:37.153Z,26.50
2019-06-10T11:11:45.758Z,26.50
2019-06-10T11:16:56.859Z,26.70
2019-06-10T11:22:03.025Z,27.20
2019-06-10T11:27:12.706Z,27.30
2019-06-10T11:32:19.320Z,27.50
2019-06-10T11:37:26.532Z,27.60
2019-06-10T11:42:33.744Z,27.40
2019-06-10T11:47:42.588Z,27.10
2019-06-10T11:52:53.581Z,26.80
2019-06-10T11:57:59.931Z,27.30
2019-06-10T12:03:07.413Z,27.70
2019-06-10T12:08:14.556Z,27.80
2019-06-10T12:13:22.603Z,28.40
2019-06-10T12:18:29.882Z,28.80
2019-06-10T12:23:37.011Z,28.80
2019-06-10T12:28:44.300Z,29.00
2019-06-10T12:33:55.335Z,29.60
2019-06-10T12:39:07.918Z,29.60
2019-06-10T12:44:15.000Z,30.20
2019-06-10T12:49:24.706Z,30.80
2019-06-10T12:54:32.642Z,31.00
2019-06-10T12:59:39.782Z,31.50
2019-06-10T13:04:47.740Z,30.50
2019-06-10T13:09:57.828Z,31.00
2019-06-10T13:15:08.418Z,32.70
2019-06-10T13:20:15.641Z,33.60
2019-06-10T13:25:22.841Z,33.10
2019-06-10T13:30:29.881Z,31.90
2019-06-10T13:35:36.933Z,29.80
2019-06-10T13:40:44.613Z,28.60
2019-06-10T13:45:53.278Z,28.00
2019-06-10T13:51:03.811Z,27.50
2019-06-10T13:56:31.997Z,27.10
2019-06-10T14:01:21.926Z,27.10
2019-06-10T14:06:39.770Z,27.30
2019-06-10T14:11:35.555Z,27.60
2019-06-10T14:16:42.619Z,27.90
2019-06-10T14:21:49.776Z,28.20
2019-06-10T14:26:56.824Z,28.40
2019-06-10T14:32:05.686Z,28.40
2019-06-10T14:37:15.585Z,28.70
2019-06-10T14:42:23.031Z,29.20
2019-06-10T14:47:32.481Z,30.30
2019-06-10T14:52:39.223Z,32.00
2019-06-10T14:57:46.292Z,32.80
2019-06-10T15:02:54.031Z,32.70
2019-06-10T15:08:03.305Z,31.90
2019-06-10T15:13:10.074Z,30.40
2019-06-10T15:18:18.201Z,30.30
2019-06-10T15:23:25.399Z,30.70
2019-06-10T15:28:32.461Z,31.40
2019-06-10T15:33:39.647Z,31.70
2019-06-10T15:38:46.907Z,32.40
2019-06-10T15:43:53.962Z,33.40
2019-06-10T15:49:02.406Z,32.60
2019-06-10T15:54:13.042Z,31.20
2019-06-10T15:59:19.826Z,30.40
2019-06-10T16:04:29.931Z,29.90
2019-06-10T16:09:36.410Z,29.70
2019-06-10T16:14:43.557Z,29.10
2019-06-10T16:19:53.111Z,28.50
2019-06-10T16:24:59.341Z,28.00
2019-06-10T16:30:07.120Z,27.60
2019-06-10T16:35:15.095Z,27.20
2019-06-10T16:40:24.270Z,26.90
2019-06-10T16:45:33.881Z,26.50
2019-06-10T16:50:42.475Z,26.30
2019-06-10T16:55:48.575Z,26.20
2019-06-10T17:00:55.686Z,26.10
2019-06-10T17:06:02.790Z,25.90
2019-06-10T17:11:12.261Z,25.70
2019-06-10T17:16:20.232Z,25.50
2019-06-10T17:21:30.333Z,25.40
2019-06-10T17:26:38.217Z,25.30
2019-06-10T17:31:45.254Z,25.10
2019-06-10T17:36:53.844Z,24.90
2019-06-10T17:42:01.234Z,24.80
2019-06-10T17:51:35.690Z,24.50
2019-06-10T17:56:42.967Z,24.30
2019-06-10T18:01:52.264Z,24.30
2019-06-10T18:06:59.011Z,24.10
2019-06-10T18:12:06.255Z,23.80
2019-06-10T18:17:13.465Z,23.50
2019-06-10T18:22:22.764Z,23.20
2019-06-10T18:27:31.141Z,23.10
2019-06-10T18:32:38.506Z,23.00
2019-06-10T18:37:45.537Z,22.70
2019-06-10T18:42:52.628Z,22.60
2019-06-10T18:47:59.717Z,22.50
2019-06-10T18:53:06.775Z,22.50
2019-06-10T19:03:53.659Z,21.70
2019-06-10T19:09:03.119Z,21.20
2019-06-10T19:14:12.792Z,20.40
2019-06-10T19:19:19.789Z,19.90
2019-06-10T19:24:27.523Z,19.40
2019-06-10T19:29:45.326Z,19.20
2019-06-10T19:34:48.163Z,18.90
2019-06-10T19:39:54.193Z,18.90
2019-06-10T19:45:03.354Z,19.60
2019-06-10T19:50:12.239Z,19.70
2019-06-10T19:55:19.519Z,19.70
2019-06-10T20:00:26.906Z,20.10
2019-06-10T20:05:34.884Z,20.00
2019-06-10T20:10:42.787Z,20.20
2019-06-10T20:15:52.340Z,19.70
2019-06-10T20:20:59.186Z,19.30
2019-06-10T20:26:06.279Z,19.10
2019-06-10T20:31:13.779Z,19.20
2019-06-10T20:36:23.250Z,19.20
2019-06-10T20:41:29.482Z,19.60
2019-06-10T20:46:36.633Z,19.60
2019-06-10T20:51:57.010Z,19.50
2019-06-10T20:56:53.386Z,19.70
2019-06-10T21:02:03.056Z,19.70
2019-06-10T21:07:12.605Z,19.70
2019-06-10T21:12:22.099Z,20.00
2019-06-10T21:17:28.958Z,19.70
2019-06-10T21:22:36.127Z,19.20
2019-06-10T21:27:45.081Z,18.90
2019-06-10T21:32:54.744Z,18.70
2019-06-10T21:38:01.064Z,18.60
2019-06-10T21:43:08.148Z,18.60
2019-06-10T21:48:15.228Z,18.60
2019-06-10T21:53:22.463Z,18.60
2019-06-10T21:58:32.654Z,18.60
2019-06-10T22:03:39.250Z,18.60
2019-06-10T22:08:47.490Z,18.70
2019-06-10T22:13:56.245Z,18.70
2019-06-10T22:19:04.049Z,18.70
2019-06-10T22:24:12.559Z,18.60
2019-06-10T22:29:19.709Z,18.50
2019-06-10T22:34:26.896Z,18.30
2019-06-10T22:39:33.966Z,18.20
2019-06-10T22:44:42.375Z,18.20
2019-06-10T22:49:50.019Z,18.20
2019-06-10T22:54:58.637Z,18.20
2019-06-10T23:00:07.633Z,18.20
2019-06-10T23:05:17.413Z,18.30
2019-06-10T23:10:24.748Z,18.20
2019-06-10T23:15:32.290Z,18.20
2019-06-10T23:20:39.640Z,18.10
2019-06-10T23:25:46.791Z,18.00
2019-06-10T23:30:57.355Z,18.10
2019-06-10T23:36:04.116Z,18.10
2019-06-10T23:41:12.994Z,18.10
2019-06-10T23:46:22.581Z,18.00
2019-06-10T23:51:28.891Z,18.00
2019-06-10T23:56:36.008Z,18.00
